Weather at Baton Rouge Metropolitan Airport

Public forecast

Using degrees Fahrenheit for public forecast. Weather courtesy of forecast.io.

Current aviation weather report (METAR) for Baton Rouge Metropolitan Airport

Retrieved 2020/09/29 22:53 UTC (55 minutes ago):

KBTR 292253Z 32006KT 10SM CLR 23/07 A3003 RMK AO2 SLP167 T02330067

Aviation forecast (TAF) for Baton Rouge Metropolitan Airport

Retrieved 2020/09/29 18:39 UTC (5 hours ago):

TAF KBTR 291737Z 2918/3018 36009G17KT P6SM SKC